Time;durP1;ratioP1;P1;durP2;ratioP2;P2;SDS_P1;SDS_P2;PMS_P1;PMS_P2;Temp;Humidity;BMP_temperature;BMP_pressure;BME280_temperature;BME280_humidity;BME280_pressure;Samples;Min_cycle;Max_cycle;Signal;HPM_P1;HPM_P2
2022/08/21 00:04:59;;;;;;;3.53;3.23;;;20.60;74.00;;;;;;10508916;28;20197;-79
2022/08/21 00:10:01;;;;;;;3.33;3.13;;;20.60;72.90;;;;;;10542923;28;20212;-79
2022/08/21 00:15:05;;;;;;;3.30;3.10;;;20.60;73.00;;;;;;10511686;28;20613;-79
2022/08/21 00:20:10;;;;;;;5.40;3.80;;;20.50;73.10;;;;;;10454708;28;20312;-80
2022/08/21 00:25:14;;;;;;;3.30;3.10;;;20.40;73.20;;;;;;10511867;28;20193;-79
2022/08/21 00:30:18;;;;;;;3.63;3.33;;;20.30;74.60;;;;;;10530884;28;20580;-79
2022/08/21 00:35:27;;;;;;;7.80;4.30;;;20.30;74.80;;;;;;10506806;28;20671;-79
2022/08/21 00:40:32;;;;;;;3.70;3.27;;;20.20;74.40;;;;;;10536276;28;20220;-79
2022/08/21 00:45:34;;;;;;;3.63;3.33;;;20.20;74.80;;;;;;10505444;28;20647;-79
2022/08/21 00:50:42;;;;;;;3.57;3.27;;;20.10;74.80;;;;;;10537700;28;20261;-79
2022/08/21 00:55:46;;;;;;;3.40;3.10;;;20.10;74.70;;;;;;10469363;28;20225;-80
2022/08/21 01:00:50;;;;;;;4.80;3.60;;;20.10;75.50;;;;;;10473172;28;20220;-79
2022/08/21 01:05:54;;;;;;;3.73;3.40;;;20.00;75.70;;;;;;10515979;28;20579;-79
2022/08/21 01:10:57;;;;;;;4.40;3.70;;;20.00;75.70;;;;;;10512077;28;20216;-81
2022/08/21 01:16:03;;;;;;;3.87;3.43;;;20.00;75.20;;;;;;10544594;28;20228;-79
2022/08/21 01:21:10;;;;;;;3.63;3.40;;;19.90;75.20;;;;;;10521197;28;20216;-80
2022/08/21 01:26:13;;;;;;;8.60;4.17;;;19.90;75.10;;;;;;10489040;28;20189;-79
2022/08/21 01:31:18;;;;;;;4.00;3.40;;;19.80;74.80;;;;;;10543988;28;20248;-80
2022/08/21 01:36:22;;;;;;;6.80;4.00;;;19.80;75.20;;;;;;10493335;28;20240;-78
2022/08/21 01:41:25;;;;;;;4.47;4.07;;;19.70;75.30;;;;;;10530647;28;20223;-79
2022/08/21 01:46:27;;;;;;;4.43;3.50;;;19.60;76.10;;;;;;10505980;28;20199;-80
2022/08/21 01:51:31;;;;;;;3.97;3.60;;;19.50;76.10;;;;;;10533388;28;20214;-80
2022/08/21 01:56:38;;;;;;;4.00;3.70;;;19.50;76.80;;;;;;10479901;28;20220;-79
2022/08/21 02:01:40;;;;;;;4.47;4.07;;;19.50;77.00;;;;;;10521704;28;20710;-79
2022/08/21 02:06:44;;;;;;;4.67;3.77;;;19.50;77.30;;;;;;10501249;28;20613;-79
2022/08/21 02:11:46;;;;;;;4.60;4.20;;;19.50;77.20;;;;;;10510938;28;20211;-79
2022/08/21 02:16:48;;;;;;;3.73;3.53;;;19.50;77.70;;;;;;10500811;28;20738;-79
2022/08/21 02:21:52;;;;;;;3.90;3.60;;;19.40;77.40;;;;;;10525994;28;20229;-78
2022/08/21 02:26:54;;;;;;;4.10;3.80;;;19.40;77.70;;;;;;10454789;28;20673;-79
2022/08/21 02:31:56;;;;;;;4.07;3.73;;;19.40;77.50;;;;;;10498429;28;20228;-79
2022/08/21 02:36:59;;;;;;;4.27;3.87;;;19.30;77.60;;;;;;10502326;28;20680;-79
2022/08/21 02:42:01;;;;;;;4.00;3.70;;;19.30;77.80;;;;;;10514580;28;20633;-81
2022/08/21 02:47:04;;;;;;;4.07;3.70;;;19.30;78.10;;;;;;10513057;28;20296;-78
2022/08/21 02:52:07;;;;;;;4.33;3.93;;;19.30;77.80;;;;;;10515730;28;20220;-81
2022/08/21 02:57:09;;;;;;;4.90;4.60;;;19.30;78.50;;;;;;10490192;28;20274;-79
2022/08/21 03:02:11;;;;;;;4.13;3.60;;;19.30;77.90;;;;;;10520898;28;20631;-79
2022/08/21 03:07:16;;;;;;;4.80;4.40;;;19.20;77.50;;;;;;10494587;28;20653;-79
2022/08/21 03:12:18;;;;;;;4.57;4.17;;;19.20;77.90;;;;;;10531455;28;20578;-78
2022/08/21 03:17:20;;;;;;;4.80;4.40;;;19.10;77.90;;;;;;10493841;28;20261;-78
2022/08/21 03:22:24;;;;;;;6.07;4.00;;;19.10;77.70;;;;;;10531294;28;20219;-79
2022/08/21 03:27:27;;;;;;;4.60;4.23;;;19.00;78.10;;;;;;10534789;28;20203;-79
2022/08/21 03:32:31;;;;;;;4.30;3.53;;;18.90;78.60;;;;;;10512085;28;20581;-79
2022/08/21 03:37:34;;;;;;;4.60;4.23;;;18.90;77.70;;;;;;10509928;28;20219;-80
2022/08/21 03:42:36;;;;;;;4.13;3.73;;;18.90;78.30;;;;;;10512493;28;20236;-78
2022/08/21 03:47:39;;;;;;;5.00;4.10;;;18.80;78.80;;;;;;10527843;28;20200;-80
2022/08/21 03:52:42;;;;;;;8.30;4.43;;;18.80;79.40;;;;;;10522144;28;20280;-80
2022/08/21 03:57:44;;;;;;;4.97;4.20;;;18.70;78.90;;;;;;10511678;28;20219;-80
2022/08/21 04:02:47;;;;;;;4.80;4.30;;;18.70;79.20;;;;;;10524859;28;20607;-80
2022/08/21 04:07:51;;;;;;;4.20;3.80;;;18.70;78.70;;;;;;10519823;28;20188;-80
2022/08/21 04:12:53;;;;;;;5.70;4.63;;;18.70;79.30;;;;;;10542807;28;20189;-79
2022/08/21 04:17:55;;;;;;;5.53;5.03;;;18.70;79.90;;;;;;10526477;28;20227;-80
2022/08/21 04:22:59;;;;;;;5.37;4.80;;;18.70;79.70;;;;;;10525419;28;20196;-80
2022/08/21 04:28:01;;;;;;;4.93;4.63;;;18.70;79.80;;;;;;10523656;28;20300;-80
2022/08/21 04:33:04;;;;;;;5.00;4.53;;;18.60;79.50;;;;;;10508449;28;20553;-80
2022/08/21 04:38:07;;;;;;;4.57;4.17;;;18.60;79.30;;;;;;10546124;28;20311;-80
2022/08/21 04:43:10;;;;;;;4.90;4.50;;;18.60;79.40;;;;;;10505674;28;20196;-80
2022/08/21 04:48:14;;;;;;;5.37;4.90;;;18.60;80.00;;;;;;10530858;28;20207;-80
2022/08/21 04:53:20;;;;;;;4.63;4.23;;;18.60;80.20;;;;;;10530249;28;20600;-80
2022/08/21 04:58:25;;;;;;;5.30;4.80;;;18.60;79.80;;;;;;10498162;28;20302;-79
2022/08/21 05:03:28;;;;;;;5.30;4.83;;;18.60;80.30;;;;;;10517088;28;20261;-79
2022/08/21 05:08:32;;;;;;;6.30;4.50;;;18.60;80.30;;;;;;10523989;28;20216;-79
2022/08/21 05:13:34;;;;;;;5.00;4.50;;;18.60;80.60;;;;;;10498923;28;20224;-79
2022/08/21 05:18:36;;;;;;;4.50;4.20;;;18.60;80.20;;;;;;10526354;28;20220;-79
2022/08/21 05:23:40;;;;;;;4.70;4.40;;;18.60;80.10;;;;;;10516313;28;20197;-78
2022/08/21 05:28:42;;;;;;;7.10;4.50;;;18.60;79.60;;;;;;10504323;28;20219;-80
2022/08/21 05:33:44;;;;;;;4.87;4.57;;;18.60;80.30;;;;;;10526166;28;20203;-80
2022/08/21 05:38:47;;;;;;;5.17;4.70;;;18.70;80.80;;;;;;10529160;28;20226;-79
2022/08/21 05:43:49;;;;;;;4.50;4.10;;;18.70;80.50;;;;;;10510113;28;20263;-80
2022/08/21 05:48:52;;;;;;;5.60;5.10;;;18.70;80.70;;;;;;10503747;28;20240;-81
2022/08/21 05:53:55;;;;;;;5.03;4.63;;;18.80;80.50;;;;;;10487392;28;20234;-80
2022/08/21 05:58:57;;;;;;;4.50;4.20;;;18.80;81.00;;;;;;10511408;28;20211;-81
2022/08/21 06:03:59;;;;;;;4.80;4.40;;;18.90;80.60;;;;;;10533136;28;20221;-81
2022/08/21 06:09:03;;;;;;;4.87;4.53;;;18.90;80.80;;;;;;10522854;28;20223;-81
2022/08/21 06:14:06;;;;;;;5.70;5.13;;;18.90;81.20;;;;;;10539890;28;20221;-80
2022/08/21 06:19:08;;;;;;;4.80;4.30;;;19.00;81.60;;;;;;10511342;28;20321;-81
2022/08/21 06:24:12;;;;;;;5.43;5.00;;;19.10;81.20;;;;;;10507630;28;20194;-81
2022/08/21 06:29:16;;;;;;;4.87;4.47;;;19.10;81.20;;;;;;10502500;28;20303;-80
2022/08/21 06:34:19;;;;;;;4.93;4.43;;;19.20;80.20;;;;;;10526318;28;20264;-81
2022/08/21 06:39:22;;;;;;;4.90;4.60;;;19.20;81.60;;;;;;10522248;28;20216;-80
2022/08/21 06:44:24;;;;;;;4.90;4.50;;;19.30;81.80;;;;;;10527446;28;20193;-80
2022/08/21 06:49:27;;;;;;;5.43;4.93;;;19.40;81.60;;;;;;10519818;28;20234;-80
2022/08/21 06:54:33;;;;;;;5.70;5.20;;;19.50;81.40;;;;;;10519958;28;20212;-80
2022/08/21 06:59:35;;;;;;;5.83;5.07;;;19.70;80.90;;;;;;10496878;28;20219;-80
2022/08/21 07:04:37;;;;;;;6.03;4.90;;;19.80;79.90;;;;;;10530277;28;20189;-80
2022/08/21 07:09:40;;;;;;;5.80;5.00;;;19.90;80.20;;;;;;10516390;28;20205;-80
2022/08/21 07:14:43;;;;;;;7.50;5.30;;;20.00;79.20;;;;;;10508677;28;20322;-80
2022/08/21 07:19:45;;;;;;;6.13;5.20;;;20.10;78.30;;;;;;10512446;28;20220;-80
2022/08/21 07:24:48;;;;;;;6.73;6.13;;;20.30;78.10;;;;;;10498104;28;20541;-79
2022/08/21 07:29:50;;;;;;;9.87;7.60;;;20.40;77.10;;;;;;10495887;28;20216;-79
2022/08/21 07:34:52;;;;;;;5.20;4.80;;;20.60;77.30;;;;;;10529994;28;20205;-79
2022/08/21 07:39:56;;;;;;;7.53;5.67;;;20.80;77.00;;;;;;10520027;28;20215;-79
2022/08/21 07:44:58;;;;;;;5.57;4.90;;;21.10;77.30;;;;;;10528362;28;20234;-79
2022/08/21 07:50:00;;;;;;;5.50;5.20;;;21.50;76.60;;;;;;10500197;28;20210;-79
2022/08/21 07:55:04;;;;;;;7.70;5.23;;;21.90;73.60;;;;;;10462485;28;20217;-81
2022/08/21 08:00:09;;;;;;;5.43;4.83;;;22.30;72.90;;;;;;10455510;28;20268;-78
2022/08/21 08:05:14;;;;;;;5.27;4.87;;;22.60;72.10;;;;;;10526736;28;20193;-79
2022/08/21 08:10:19;;;;;;;5.30;5.00;;;22.90;70.20;;;;;;10494075;28;20211;-79
2022/08/21 08:15:23;;;;;;;5.77;5.23;;;23.10;70.70;;;;;;10508155;28;20223;-79
2022/08/21 08:20:26;;;;;;;5.53;5.03;;;23.30;70.90;;;;;;10493366;28;20216;-79
2022/08/21 08:25:30;;;;;;;5.60;5.10;;;23.40;68.70;;;;;;10543338;28;20210;-79
2022/08/21 08:30:32;;;;;;;5.87;5.47;;;23.60;68.00;;;;;;10542924;28;20240;-80
2022/08/21 08:35:34;;;;;;;7.50;5.27;;;23.70;68.30;;;;;;10514312;28;20274;-80
2022/08/21 08:40:44;;;;;;;5.50;5.00;;;23.90;67.30;;;;;;10537629;28;20220;-81
2022/08/21 08:45:50;;;;;;;5.20;4.70;;;24.10;66.40;;;;;;10502678;28;20291;-81
2022/08/21 08:50:57;;;;;;;5.13;4.73;;;24.20;64.10;;;;;;10528857;28;20308;-79
2022/08/21 08:56:03;;;;;;;4.87;4.50;;;24.30;63.50;;;;;;10506851;28;20243;-80
2022/08/21 09:01:14;;;;;;;4.83;4.43;;;24.40;64.40;;;;;;10515512;28;20223;-80
2022/08/21 09:06:29;;;;;;;6.10;5.70;;;24.50;64.40;;;;;;10537125;28;20223;-79
2022/08/21 09:11:44;;;;;;;4.67;4.10;;;24.50;65.50;;;;;;10527355;28;20823;-80
2022/08/21 09:16:52;;;;;;;7.77;5.00;;;24.40;67.00;;;;;;10467077;28;20212;-80
2022/08/21 09:22:02;;;;;;;5.87;5.40;;;24.40;67.50;;;;;;10475436;28;20647;-80
2022/08/21 09:27:09;;;;;;;5.90;5.50;;;24.40;64.90;;;;;;10500378;28;20192;-79
2022/08/21 09:32:18;;;;;;;5.37;4.87;;;24.50;63.60;;;;;;10494096;28;20373;-79
2022/08/21 09:37:20;;;;;;;5.13;4.63;;;24.60;63.20;;;;;;10517793;28;20207;-80
2022/08/21 09:42:27;;;;;;;6.50;5.37;;;24.90;63.30;;;;;;10507087;28;20228;-79
2022/08/21 09:47:30;;;;;;;7.00;5.73;;;25.30;61.60;;;;;;10499539;28;20222;-80
2022/08/21 09:52:32;;;;;;;5.27;4.77;;;25.30;61.40;;;;;;10476036;28;20235;-79
2022/08/21 09:57:46;;;;;;;5.47;5.07;;;25.30;61.80;;;;;;10487013;28;20224;-79
2022/08/21 10:02:48;;;;;;;7.57;4.40;;;25.40;61.00;;;;;;10517415;28;20204;-80
2022/08/21 10:07:50;;;;;;;5.73;5.13;;;25.80;59.70;;;;;;10482204;28;20196;-79
2022/08/21 10:13:02;;;;;;;7.60;6.30;;;26.10;58.90;;;;;;10496213;28;20236;-80
2022/08/21 10:18:19;;;;;;;6.30;5.80;;;26.40;58.00;;;;;;10466793;28;20252;-80
2022/08/21 10:23:37;;;;;;;5.90;4.60;;;26.40;59.30;;;;;;10477915;28;20633;-80
2022/08/21 10:28:49;;;;;;;6.40;6.00;;;26.30;58.60;;;;;;10470663;28;20294;-80
2022/08/21 10:33:59;;;;;;;8.23;7.10;;;26.10;59.40;;;;;;10461687;28;20231;-80
2022/08/21 10:39:12;;;;;;;6.73;6.03;;;26.00;59.80;;;;;;10460394;28;20216;-80
2022/08/21 10:44:28;;;;;;;6.67;6.00;;;25.80;59.70;;;;;;10476467;28;20193;-79
2022/08/21 10:49:39;;;;;;;7.23;6.20;;;25.60;59.40;;;;;;10432234;28;20226;-80
2022/08/21 10:54:48;;;;;;;5.87;5.37;;;25.50;58.80;;;;;;10490756;28;20202;-80
2022/08/21 10:59:59;;;;;;;6.63;5.90;;;25.40;59.30;;;;;;10481539;28;20217;-80
2022/08/21 11:05:06;;;;;;;7.07;5.40;;;25.30;58.90;;;;;;10484686;28;20220;-79
2022/08/21 11:10:15;;;;;;;6.17;5.57;;;25.20;60.10;;;;;;10483645;28;20763;-79
2022/08/21 11:15:29;;;;;;;5.70;5.30;;;25.10;60.30;;;;;;10477672;28;20204;-80
2022/08/21 11:20:38;;;;;;;5.87;5.47;;;25.10;60.30;;;;;;10490506;28;20240;-80
2022/08/21 11:25:45;;;;;;;6.50;5.90;;;25.10;60.20;;;;;;10473882;28;20204;-80
2022/08/21 11:30:59;;;;;;;7.10;5.10;;;25.00;59.30;;;;;;10487442;28;20228;-80
2022/08/21 11:36:10;;;;;;;5.87;5.27;;;25.00;60.20;;;;;;10473537;28;20595;-80
2022/08/21 11:41:23;;;;;;;5.77;5.27;;;25.00;59.50;;;;;;10513245;28;20574;-80
2022/08/21 11:46:36;;;;;;;7.13;6.47;;;25.00;60.40;;;;;;10482002;28;20200;-79
2022/08/21 11:51:47;;;;;;;5.90;5.30;;;25.00;59.50;;;;;;10482718;28;20300;-79
2022/08/21 11:56:54;;;;;;;6.30;5.70;;;25.20;58.70;;;;;;10443334;28;20217;-80
2022/08/21 12:01:59;;;;;;;5.83;5.33;;;25.30;57.70;;;;;;10474650;28;20220;-79
2022/08/21 12:07:12;;;;;;;6.60;6.07;;;25.30;59.10;;;;;;10473444;28;20273;-79
2022/08/21 12:12:26;;;;;;;5.70;5.30;;;25.20;60.20;;;;;;10471250;28;20253;-80
2022/08/21 12:17:37;;;;;;;5.87;5.47;;;25.20;59.90;;;;;;10468616;28;20225;-79
2022/08/21 12:22:41;;;;;;;6.43;5.80;;;25.20;59.20;;;;;;10469348;28;20200;-79
2022/08/21 12:27:47;;;;;;;5.93;5.33;;;25.10;59.80;;;;;;10469754;28;20276;-79
2022/08/21 12:32:59;;;;;;;5.50;5.00;;;25.30;57.80;;;;;;10447552;28;20201;-79
2022/08/21 12:38:08;;;;;;;5.53;5.10;;;25.30;58.50;;;;;;10488780;28;20225;-80
2022/08/21 12:43:16;;;;;;;4.83;4.50;;;25.30;57.50;;;;;;10467571;28;20573;-80
2022/08/21 12:48:26;;;;;;;6.03;5.50;;;25.30;57.00;;;;;;10467567;28;20216;-79
2022/08/21 12:53:32;;;;;;;5.80;5.27;;;25.20;56.90;;;;;;10456776;28;20201;-78
2022/08/21 12:58:34;;;;;;;6.40;5.77;;;25.10;58.70;;;;;;10460069;28;20251;-79
2022/08/21 13:03:40;;;;;;;5.50;5.10;;;25.10;59.70;;;;;;10536039;28;20200;-79
2022/08/21 13:08:44;;;;;;;6.30;5.90;;;25.00;59.50;;;;;;10494032;28;20704;-78
2022/08/21 13:13:50;;;;;;;5.20;4.90;;;25.00;59.50;;;;;;10514194;28;20200;-80
2022/08/21 13:18:57;;;;;;;5.60;5.17;;;25.10;58.50;;;;;;10470566;28;20291;-79
2022/08/21 13:24:16;;;;;;;5.67;5.27;;;25.10;58.10;;;;;;10474809;28;20208;-80
2022/08/21 13:29:21;;;;;;;5.30;4.90;;;25.20;57.20;;;;;;10468397;28;20230;-79
2022/08/21 13:34:30;;;;;;;5.70;5.07;;;25.40;57.70;;;;;;10450071;28;20230;-79
2022/08/21 13:39:33;;;;;;;5.73;5.33;;;25.60;57.40;;;;;;10492503;28;20212;-80
2022/08/21 13:44:40;;;;;;;5.70;5.30;;;25.70;56.30;;;;;;10530537;28;20246;-78
2022/08/21 13:49:47;;;;;;;5.50;5.10;;;25.80;56.80;;;;;;10496799;28;20257;-80
2022/08/21 13:54:55;;;;;;;6.77;6.17;;;25.80;57.40;;;;;;10495392;28;20284;-79
2022/08/21 14:00:14;;;;;;;6.20;5.80;;;25.80;56.30;;;;;;10441201;28;20219;-79
2022/08/21 14:05:22;;;;;;;6.27;5.70;;;25.80;56.60;;;;;;10525947;28;20196;-79
2022/08/21 14:10:29;;;;;;;6.17;5.67;;;25.80;55.50;;;;;;10482909;28;20507;-79
2022/08/21 14:15:34;;;;;;;4.63;4.27;;;25.90;55.70;;;;;;10514549;28;20204;-79
2022/08/21 14:20:38;;;;;;;5.40;5.00;;;25.90;55.30;;;;;;10499942;28;20218;-80
2022/08/21 14:25:42;;;;;;;5.50;5.10;;;25.90;56.00;;;;;;10529480;28;20199;-80
2022/08/21 14:30:45;;;;;;;6.00;5.50;;;25.80;55.50;;;;;;10540505;28;20228;-80
2022/08/21 14:35:49;;;;;;;6.30;5.70;;;25.80;55.00;;;;;;10494520;28;20201;-79
2022/08/21 14:40:53;;;;;;;4.73;4.43;;;25.90;55.20;;;;;;10489727;28;20230;-78
2022/08/21 14:45:55;;;;;;;7.10;5.30;;;25.90;55.70;;;;;;10460793;28;20302;-77
2022/08/21 14:50:58;;;;;;;5.80;5.20;;;26.00;55.30;;;;;;10495103;28;20216;-79
2022/08/21 14:56:07;;;;;;;6.30;5.80;;;26.00;55.30;;;;;;10493765;28;20208;-79
2022/08/21 15:01:12;;;;;;;7.43;5.67;;;25.90;55.90;;;;;;10532228;28;20211;-80
2022/08/21 15:06:17;;;;;;;5.67;5.27;;;25.80;55.20;;;;;;10531380;28;20196;-80
2022/08/21 15:11:21;;;;;;;8.73;5.73;;;25.80;56.80;;;;;;10502939;28;20233;-79
2022/08/21 15:16:24;;;;;;;5.30;4.90;;;25.70;57.30;;;;;;10495462;28;20701;-79
2022/08/21 15:21:27;;;;;;;5.00;4.50;;;25.60;58.40;;;;;;10503336;28;20787;-79
2022/08/21 15:26:29;;;;;;;5.67;5.27;;;25.50;55.70;;;;;;10473610;28;20664;-79
2022/08/21 15:31:32;;;;;;;6.10;5.70;;;25.50;54.90;;;;;;10473582;28;20224;-78
2022/08/21 15:36:35;;;;;;;5.07;4.67;;;25.40;57.30;;;;;;10462589;28;20709;-79
2022/08/21 15:41:37;;;;;;;5.23;4.80;;;25.40;57.60;;;;;;10503497;28;20308;-79
2022/08/21 15:46:40;;;;;;;5.63;5.17;;;25.40;56.00;;;;;;10513659;28;20196;-79
2022/08/21 15:51:44;;;;;;;5.50;5.20;;;25.50;55.20;;;;;;10512911;28;20215;-79
2022/08/21 15:56:51;;;;;;;4.80;4.50;;;25.50;54.60;;;;;;10495859;28;20276;-79
2022/08/21 16:01:53;;;;;;;4.23;3.93;;;25.50;55.30;;;;;;10504936;28;20211;-80
2022/08/21 16:06:57;;;;;;;4.80;4.40;;;25.50;55.90;;;;;;10516852;28;20193;-79
2022/08/21 16:12:00;;;;;;;4.67;4.13;;;25.40;56.30;;;;;;10499966;28;20222;-79
2022/08/21 16:17:04;;;;;;;5.50;5.10;;;25.30;58.30;;;;;;10519418;28;20247;-80
2022/08/21 16:22:07;;;;;;;4.67;4.27;;;25.30;55.20;;;;;;10503616;28;20216;-80
2022/08/21 16:27:10;;;;;;;4.37;3.97;;;25.30;55.00;;;;;;10458022;28;20219;-80
2022/08/21 16:32:13;;;;;;;5.40;4.83;;;25.30;55.90;;;;;;10546616;28;20559;-80
2022/08/21 16:37:18;;;;;;;4.97;4.57;;;25.30;54.20;;;;;;10507151;28;20247;-79
2022/08/21 16:42:24;;;;;;;5.30;4.60;;;25.30;56.10;;;;;;10535560;28;20208;-81
2022/08/21 16:47:26;;;;;;;4.80;4.50;;;25.30;55.40;;;;;;10507839;28;20197;-80
2022/08/21 16:52:30;;;;;;;4.90;4.40;;;25.20;56.50;;;;;;10511308;28;20249;-81
2022/08/21 16:57:32;;;;;;;5.17;4.80;;;25.20;52.80;;;;;;10455964;28;20218;-80
2022/08/21 17:02:37;;;;;;;4.33;3.93;;;25.30;55.10;;;;;;10547571;28;20239;-81
2022/08/21 17:07:41;;;;;;;4.40;4.10;;;25.30;54.50;;;;;;10551971;28;20192;-80
2022/08/21 17:12:49;;;;;;;4.73;4.40;;;25.30;54.80;;;;;;10502662;28;20192;-81
2022/08/21 17:17:52;;;;;;;4.27;4.00;;;25.20;55.90;;;;;;10493398;28;20215;-81
2022/08/21 17:22:55;;;;;;;4.60;4.30;;;25.20;56.20;;;;;;10497714;28;20679;-82
2022/08/21 17:27:58;;;;;;;5.20;4.80;;;25.10;55.70;;;;;;10500295;28;20279;-81
2022/08/21 17:33:01;;;;;;;4.43;4.03;;;25.10;55.70;;;;;;10519754;28;20196;-78
2022/08/21 17:38:05;;;;;;;4.40;4.10;;;25.00;56.30;;;;;;10516220;28;20311;-81
2022/08/21 17:43:08;;;;;;;4.53;4.20;;;25.00;53.40;;;;;;10505650;28;20303;-81
2022/08/21 17:48:11;;;;;;;4.67;4.30;;;25.00;55.60;;;;;;10501351;28;20254;-81
2022/08/21 17:53:14;;;;;;;4.17;3.97;;;24.90;58.20;;;;;;10508671;28;20319;-81
2022/08/21 17:58:17;;;;;;;5.30;4.60;;;24.80;56.80;;;;;;10482358;28;20259;-79
2022/08/21 18:03:21;;;;;;;4.90;4.50;;;24.80;56.90;;;;;;10478298;28;20666;-80
2022/08/21 18:08:25;;;;;;;3.97;3.67;;;24.70;56.80;;;;;;10486923;28;20236;-79
2022/08/21 18:13:31;;;;;;;4.90;4.50;;;24.60;57.80;;;;;;10474774;28;20193;-81
2022/08/21 18:18:39;;;;;;;4.63;4.33;;;24.40;58.00;;;;;;10462829;28;20220;-80
2022/08/21 18:23:43;;;;;;;5.20;4.70;;;24.30;57.80;;;;;;10488060;28;20201;-78
2022/08/21 18:28:45;;;;;;;5.23;4.73;;;24.10;58.30;;;;;;10488339;28;20217;-81
2022/08/21 18:33:48;;;;;;;4.30;4.00;;;24.00;58.10;;;;;;10480246;28;20292;-81
2022/08/21 18:38:52;;;;;;;6.40;5.90;;;23.80;58.00;;;;;;10489635;28;20736;-80
2022/08/21 18:43:55;;;;;;;7.20;6.60;;;23.70;58.10;;;;;;10468985;28;20267;-79
2022/08/21 18:48:57;;;;;;;5.73;5.23;;;23.60;58.60;;;;;;10475940;28;20221;-80
2022/08/21 18:54:00;;;;;;;5.37;4.87;;;23.50;59.00;;;;;;10458036;28;20284;-80
2022/08/21 18:59:03;;;;;;;5.10;4.60;;;23.40;58.70;;;;;;10443051;28;20229;-80
2022/08/21 19:04:06;;;;;;;5.00;4.60;;;23.30;58.90;;;;;;10441737;28;20197;-80
2022/08/21 19:09:10;;;;;;;5.20;4.70;;;23.30;58.40;;;;;;10472496;28;20225;-81
2022/08/21 19:14:15;;;;;;;4.73;4.40;;;23.20;59.10;;;;;;10471566;28;20225;-80
2022/08/21 19:19:18;;;;;;;4.90;4.40;;;23.10;58.60;;;;;;10477199;28;20769;-80
2022/08/21 19:24:21;;;;;;;5.07;4.67;;;23.00;59.00;;;;;;10491536;28;20227;-81
2022/08/21 19:29:24;;;;;;;4.37;4.07;;;22.90;59.10;;;;;;10448023;28;20225;-79
2022/08/21 19:34:28;;;;;;;5.33;4.83;;;22.80;60.10;;;;;;10496616;28;20691;-79
2022/08/21 19:39:37;;;;;;;6.20;5.40;;;22.80;59.90;;;;;;10480874;28;20229;-80
2022/08/21 19:44:40;;;;;;;5.67;5.17;;;22.70;60.70;;;;;;10447273;28;20200;-79
2022/08/21 19:49:48;;;;;;;5.73;5.20;;;22.60;60.40;;;;;;10493855;28;20216;-79
2022/08/21 19:54:52;;;;;;;5.40;5.00;;;22.60;60.00;;;;;;10473759;28;20193;-79
2022/08/21 19:59:54;;;;;;;5.43;4.93;;;22.60;60.00;;;;;;10466923;28;20288;-79
2022/08/21 20:04:56;;;;;;;5.07;4.67;;;22.50;60.00;;;;;;10483922;28;20896;-77
2022/08/21 20:10:01;;;;;;;5.20;4.80;;;22.40;60.20;;;;;;10471901;28;20317;-80
2022/08/21 20:15:04;;;;;;;5.30;4.70;;;22.40;60.30;;;;;;10483510;28;20223;-81
2022/08/21 20:20:08;;;;;;;5.73;5.23;;;22.30;60.10;;;;;;10463566;28;20240;-81
2022/08/21 20:25:11;;;;;;;5.60;5.10;;;22.20;60.30;;;;;;10501737;28;20215;-76
2022/08/21 20:30:15;;;;;;;4.87;4.47;;;22.20;61.30;;;;;;10511893;28;20255;-79
2022/08/21 20:35:17;;;;;;;4.43;4.03;;;22.10;60.10;;;;;;10490414;28;20250;-79
2022/08/21 20:40:21;;;;;;;5.57;5.13;;;22.10;60.20;;;;;;10484287;28;20233;-79
2022/08/21 20:45:27;;;;;;;5.63;5.13;;;22.00;60.20;;;;;;10485311;28;20239;-79
2022/08/21 20:50:32;;;;;;;5.63;5.07;;;21.90;61.30;;;;;;10469345;28;20217;-79
2022/08/21 20:55:38;;;;;;;4.93;4.53;;;21.90;62.40;;;;;;10457433;28;20216;-79
2022/08/21 21:00:42;;;;;;;6.13;5.40;;;21.90;60.50;;;;;;10499247;28;20368;-79
2022/08/21 21:05:50;;;;;;;6.50;6.10;;;21.90;61.20;;;;;;10462769;28;20641;-79
2022/08/21 21:10:57;;;;;;;6.00;5.43;;;21.90;60.30;;;;;;10459696;28;20209;-80
2022/08/21 21:16:02;;;;;;;5.37;5.07;;;21.80;60.00;;;;;;10468508;28;20194;-79
2022/08/21 21:21:10;;;;;;;6.93;5.30;;;21.70;60.00;;;;;;10446338;28;20225;-79
2022/08/21 21:26:20;;;;;;;6.47;5.97;;;21.70;60.00;;;;;;10469880;28;20189;-79
2022/08/21 21:31:24;;;;;;;6.87;6.37;;;21.60;60.20;;;;;;10454499;28;20231;-78
2022/08/21 21:36:34;;;;;;;6.10;5.70;;;21.50;60.40;;;;;;10533508;28;20729;-80
2022/08/21 21:41:47;;;;;;;6.20;5.60;;;21.50;60.80;;;;;;10486453;28;20789;-80
2022/08/21 21:47:02;;;;;;;6.00;5.50;;;21.40;61.20;;;;;;10468814;28;20205;-79
2022/08/21 21:52:27;;;;;;;5.70;5.40;;;21.40;61.20;;;;;;10448378;28;20692;-80
2022/08/21 21:58:00;;;;;;;6.13;5.60;;;21.40;60.50;;;;;;10461912;28;20772;-78
2022/08/21 22:03:10;;;;;;;6.23;5.70;;;21.40;62.10;;;;;;10471257;28;20285;-80
2022/08/21 22:08:21;;;;;;;6.20;5.80;;;21.40;61.60;;;;;;10454189;28;20208;-79
2022/08/21 22:13:30;;;;;;;5.40;4.93;;;21.30;60.70;;;;;;10492813;28;20647;-79
2022/08/21 22:18:37;;;;;;;5.97;5.47;;;21.30;61.90;;;;;;10471809;28;20227;-78
2022/08/21 22:23:42;;;;;;;6.13;5.73;;;21.20;62.50;;;;;;10488372;28;20223;-79
2022/08/21 22:28:51;;;;;;;5.70;5.30;;;21.20;62.20;;;;;;10532464;28;20265;-79
2022/08/21 22:34:06;;;;;;;5.67;5.20;;;21.20;62.10;;;;;;10480547;28;20197;-80
2022/08/21 22:39:13;;;;;;;5.90;5.33;;;21.20;62.20;;;;;;10463109;28;20717;-79
2022/08/21 22:44:22;;;;;;;5.90;5.30;;;21.10;62.00;;;;;;10500477;28;20200;-80
2022/08/21 22:49:31;;;;;;;5.60;5.10;;;21.10;61.60;;;;;;10492369;28;20612;-80
2022/08/21 22:54:35;;;;;;;6.57;6.17;;;21.10;62.90;;;;;;10484623;28;20732;-78
2022/08/21 22:59:51;;;;;;;6.00;5.50;;;21.00;63.60;;;;;;10490627;28;20244;-80
2022/08/21 23:04:58;;;;;;;6.10;5.70;;;21.00;63.50;;;;;;10454515;28;20256;-79
2022/08/21 23:10:01;;;;;;;6.03;5.43;;;21.00;63.30;;;;;;10471501;28;20296;-80
2022/08/21 23:15:08;;;;;;;6.20;5.77;;;21.00;62.00;;;;;;10491959;28;20779;-80
2022/08/21 23:20:16;;;;;;;6.37;5.97;;;21.00;62.10;;;;;;10494714;28;20243;-79
2022/08/21 23:25:47;;;;;;;6.37;5.73;;;21.00;62.30;;;;;;10486920;28;20209;-79
2022/08/21 23:31:02;;;;;;;5.90;5.50;;;20.90;64.10;;;;;;10474554;28;20213;-80
2022/08/21 23:41:46;;;;;;;6.07;5.53;;;20.90;63.50;;;;;;10472121;28;20641;-79
2022/08/21 23:47:02;;;;;;;6.27;5.60;;;20.90;64.40;;;;;;10470250;28;20212;-79
2022/08/21 23:52:15;;;;;;;6.20;5.40;;;20.80;64.90;;;;;;10487247;28;20230;-78
2022/08/21 23:57:24;;;;;;;4.70;4.40;;;20.80;64.90;;;;;;10463423;28;20217;-80
